Pagrindinis puslapis
METAR-TAF:

METAR-TAF

Oro uostai :

Monte Terminillo, Italija

platuma: 42-28N, ilguma: 012-59E, Aukštis: 1874 m

Dabartinis oras

Ataskaita buvo paskelbta 1 valandą ir 21 minutes, ne 18:55 UTC
Vėjas 5 kt iš Šiaurės
Temperatūra 7°C
Drėgmė 57%
Slėgis 1024 hPa

METAR: LIRK 091855Z AUTO 01005KT //// 07/M01 Q1024

Laikas: 22:16 (20:16 UTC)


TAF: trūkstamas

Orai ataskaitas ir orų prognozės (METAR, TAF).

turimą stotys yra geltonos ir raudonos taškus žemėlapyje.

Perkelti pele per norėdami pamatyti stoties vardą.

Tada spustelėkite, norėdami matyti oro stebėjimo ir prognozės.

Norėdami pakeisti žemėlapį: spustelėkite ant žalios mygtukų su juodo kryžiaus žemyn,; žalią mygtuką su brūkšneliu, jei norite nutolinti; arba žalių rodyklių gretimoms žemėlapius.


METAR-TAF: